Time;durP1;ratioP1;P1;durP2;ratioP2;P2;SDS_P1;SDS_P2;PMS_P1;PMS_P2;Temp;Humidity;BMP_temperature;BMP_pressure;BME280_temperature;BME280_humidity;BME280_pressure;Samples;Min_cycle;Max_cycle;Signal;HPM_P1;HPM_P2
2021/01/16 00:00:18;;;;;;;125.93;59.83;;;;;;;;;;4417158;32;20288;-56
2021/01/16 00:02:44;;;;;;;123.63;58.70;;;;;;;;;;4417491;32;20224;-55
2021/01/16 00:05:10;;;;;;;125.30;58.10;;;;;;;;;;4415872;32;20378;-54
2021/01/16 00:07:35;;;;;;;128.60;59.30;;;;;;;;;;4416969;32;20682;-54
2021/01/16 00:10:01;;;;;;;132.13;62.70;;;;;;;;;;4417052;32;20370;-55
2021/01/16 00:12:26;;;;;;;127.77;60.87;;;;;;;;;;4417501;32;20284;-55
2021/01/16 00:14:52;;;;;;;134.23;66.17;;;;;;;;;;4416230;32;20315;-55
2021/01/16 00:17:17;;;;;;;143.40;69.23;;;;;;;;;;4414096;32;20233;-55
2021/01/16 00:19:43;;;;;;;122.77;60.43;;;;;;;;;;4417231;32;20299;-57
2021/01/16 00:22:08;;;;;;;80.83;39.33;;;;;;;;;;4416728;32;20403;-56
2021/01/16 00:24:35;;;;;;;69.40;37.97;;;;;;;;;;4409526;32;20834;-53
2021/01/16 00:27:01;;;;;;;66.13;35.50;;;;;;;;;;4399325;32;20334;-52
2021/01/16 00:29:26;;;;;;;48.50;27.67;;;;;;;;;;4412506;32;20296;-53
2021/01/16 00:31:51;;;;;;;53.70;29.30;;;;;;;;;;4410718;32;20225;-54
2021/01/16 00:34:17;;;;;;;45.77;26.43;;;;;;;;;;4411130;32;20394;-53
2021/01/16 00:36:42;;;;;;;45.53;26.27;;;;;;;;;;4412543;32;20308;-53
2021/01/16 00:39:08;;;;;;;54.47;26.90;;;;;;;;;;4417033;32;20415;-54
2021/01/16 00:41:34;;;;;;;47.23;25.40;;;;;;;;;;4413123;32;20276;-53
2021/01/16 00:44:00;;;;;;;62.97;28.63;;;;;;;;;;4417884;32;20555;-54
2021/01/16 00:46:25;;;;;;;53.03;28.77;;;;;;;;;;4415812;32;20278;-54
2021/01/16 00:48:51;;;;;;;66.13;33.53;;;;;;;;;;4417647;32;20330;-53
2021/01/16 00:51:16;;;;;;;63.13;33.03;;;;;;;;;;4414802;32;20218;-53
2021/01/16 00:53:41;;;;;;;65.70;35.17;;;;;;;;;;4417821;32;20272;-54
2021/01/16 00:56:07;;;;;;;80.23;40.83;;;;;;;;;;4409517;32;20258;-53
2021/01/16 00:58:32;;;;;;;126.80;60.40;;;;;;;;;;4409495;32;20218;-53
2021/01/16 01:00:58;;;;;;;99.87;51.20;;;;;;;;;;4412087;32;20736;-53
2021/01/16 01:03:24;;;;;;;108.20;56.03;;;;;;;;;;4417048;32;20605;-53
2021/01/16 01:05:50;;;;;;;70.17;42.87;;;;;;;;;;4415894;32;20684;-54
2021/01/16 01:08:15;;;;;;;65.17;37.87;;;;;;;;;;4412876;32;20210;-55
2021/01/16 01:10:43;;;;;;;62.27;34.60;;;;;;;;;;4411635;32;20743;-54
2021/01/16 01:13:09;;;;;;;63.87;35.03;;;;;;;;;;4411607;32;20259;-54
2021/01/16 01:15:38;;;;;;;73.43;42.57;;;;;;;;;;4415941;32;20284;-54
2021/01/16 01:18:04;;;;;;;84.03;42.60;;;;;;;;;;4416533;32;20740;-53
2021/01/16 01:20:30;;;;;;;70.13;40.57;;;;;;;;;;4414892;32;20465;-54
2021/01/16 01:22:57;;;;;;;72.33;42.97;;;;;;;;;;4414412;32;20390;-54
2021/01/16 01:25:23;;;;;;;85.53;43.13;;;;;;;;;;4416635;32;20361;-53
2021/01/16 01:28:00;;;;;;;99.93;48.67;;;;;;;;;;4416706;32;20226;-53
2021/01/16 01:30:27;;;;;;;85.27;43.53;;;;;;;;;;4418914;32;20302;-54
2021/01/16 01:32:53;;;;;;;78.17;41.17;;;;;;;;;;4419555;32;20221;-54
2021/01/16 01:35:20;;;;;;;82.23;43.63;;;;;;;;;;4405370;32;20269;-54
2021/01/16 01:37:50;;;;;;;73.40;42.27;;;;;;;;;;4417186;32;20256;-54
2021/01/16 01:40:18;;;;;;;83.43;44.33;;;;;;;;;;4419668;32;20239;-54
2021/01/16 01:42:47;;;;;;;57.00;34.47;;;;;;;;;;4418769;32;20296;-53
2021/01/16 01:45:13;;;;;;;60.10;34.53;;;;;;;;;;4413741;32;20240;-54
2021/01/16 01:47:40;;;;;;;54.93;30.13;;;;;;;;;;4418598;32;20225;-54
2021/01/16 01:50:08;;;;;;;51.03;30.07;;;;;;;;;;4419007;32;20216;-54
2021/01/16 01:52:34;;;;;;;58.57;31.67;;;;;;;;;;4416122;32;20261;-54
2021/01/16 01:55:01;;;;;;;52.60;31.37;;;;;;;;;;4420148;32;20266;-53
2021/01/16 01:57:30;;;;;;;52.30;30.73;;;;;;;;;;4416346;32;20228;-53
2021/01/16 01:59:56;;;;;;;54.77;31.43;;;;;;;;;;4420266;32;20239;-54
2021/01/16 02:02:23;;;;;;;61.47;31.40;;;;;;;;;;4418293;32;20754;-53
2021/01/16 02:04:51;;;;;;;53.73;31.50;;;;;;;;;;4418675;32;20202;-54
2021/01/16 02:07:37;;;;;;;57.80;33.03;;;;;;;;;;4412941;32;20225;-54
2021/01/16 02:10:25;;;;;;;64.03;33.80;;;;;;;;;;4398956;32;20264;-59
2021/01/16 02:12:54;;;;;;;72.27;37.13;;;;;;;;;;4410935;32;20232;-58
2021/01/16 02:15:38;;;;;;;56.13;32.47;;;;;;;;;;4409463;32;20530;-57
2021/01/16 02:18:09;;;;;;;54.60;32.73;;;;;;;;;;4415882;32;20234;-57
2021/01/16 02:20:36;;;;;;;61.90;34.87;;;;;;;;;;4413703;32;20304;-57
2021/01/16 02:23:22;;;;;;;66.40;39.03;;;;;;;;;;4412948;32;20281;-56
2021/01/16 02:26:07;;;;;;;55.47;31.27;;;;;;;;;;4406873;32;20270;-56
2021/01/16 02:28:35;;;;;;;51.17;30.93;;;;;;;;;;4413550;32;20586;-55
2021/01/16 02:31:04;;;;;;;53.70;29.73;;;;;;;;;;4419343;32;20681;-55
2021/01/16 02:33:32;;;;;;;54.40;31.83;;;;;;;;;;4416314;32;20209;-55
2021/01/16 02:36:13;;;;;;;43.63;26.37;;;;;;;;;;4416962;32;20665;-57
2021/01/16 02:39:12;;;;;;;43.93;25.60;;;;;;;;;;4412924;32;20233;-56
2021/01/16 02:41:51;;;;;;;38.93;23.70;;;;;;;;;;4416770;32;20343;-56
2021/01/16 02:44:26;;;;;;;39.07;23.23;;;;;;;;;;4412868;32;20287;-56
2021/01/16 02:47:02;;;;;;;37.00;24.63;;;;;;;;;;4417075;32;20396;-57
2021/01/16 02:49:40;;;;;;;41.43;24.03;;;;;;;;;;4415406;32;20221;-57
2021/01/16 02:52:13;;;;;;;39.73;25.03;;;;;;;;;;4417838;32;20653;-56
2021/01/16 02:54:40;;;;;;;41.50;25.57;;;;;;;;;;4412699;32;20335;-56
2021/01/16 02:57:08;;;;;;;44.07;26.50;;;;;;;;;;4418021;32;20233;-57
2021/01/16 02:59:35;;;;;;;45.17;30.40;;;;;;;;;;4409322;32;20230;-56
2021/01/16 03:02:04;;;;;;;46.87;30.83;;;;;;;;;;4416391;32;20386;-56
2021/01/16 03:04:30;;;;;;;47.63;30.17;;;;;;;;;;4405488;32;20634;-54
2021/01/16 03:06:56;;;;;;;42.13;27.73;;;;;;;;;;4412180;32;20256;-55
2021/01/16 03:09:23;;;;;;;46.73;27.93;;;;;;;;;;4406509;32;20256;-55
2021/01/16 03:11:49;;;;;;;45.70;28.37;;;;;;;;;;4418085;32;20237;-54
2021/01/16 03:14:17;;;;;;;49.47;28.70;;;;;;;;;;4416519;32;20352;-55
2021/01/16 03:17:01;;;;;;;56.07;27.50;;;;;;;;;;4417600;32;20602;-55
2021/01/16 03:19:31;;;;;;;44.97;27.67;;;;;;;;;;4413374;32;20669;-57
2021/01/16 03:21:56;;;;;;;40.20;25.47;;;;;;;;;;4418174;32;20232;-57
2021/01/16 03:24:22;;;;;;;43.57;26.53;;;;;;;;;;4416612;32;20690;-56
2021/01/16 03:26:47;;;;;;;46.97;27.03;;;;;;;;;;4416225;32;20520;-57
2021/01/16 03:29:12;;;;;;;47.13;27.53;;;;;;;;;;4416502;32;20720;-57
2021/01/16 03:31:38;;;;;;;36.77;22.27;;;;;;;;;;4418332;32;20304;-57
2021/01/16 03:34:03;;;;;;;35.67;21.37;;;;;;;;;;4416267;32;20256;-57
2021/01/16 03:36:29;;;;;;;30.70;18.80;;;;;;;;;;4409015;32;20296;-58
2021/01/16 03:38:55;;;;;;;24.43;16.37;;;;;;;;;;4415872;32;20333;-57
2021/01/16 03:41:20;;;;;;;27.80;16.67;;;;;;;;;;4418508;32;20692;-56
2021/01/16 03:43:46;;;;;;;22.67;16.73;;;;;;;;;;4417483;32;20347;-57
2021/01/16 03:46:11;;;;;;;22.20;13.70;;;;;;;;;;4404355;32;20250;-57
2021/01/16 03:48:38;;;;;;;19.60;12.30;;;;;;;;;;4417196;32;20288;-57
2021/01/16 03:51:03;;;;;;;16.67;11.83;;;;;;;;;;4417870;32;20284;-57
2021/01/16 03:53:29;;;;;;;13.90;10.37;;;;;;;;;;4415206;32;20774;-57
2021/01/16 03:55:55;;;;;;;12.90;9.30;;;;;;;;;;4417186;32;20789;-57
2021/01/16 03:58:20;;;;;;;15.53;9.40;;;;;;;;;;4415548;32;20687;-56
2021/01/16 04:00:45;;;;;;;12.53;8.50;;;;;;;;;;4418376;32;20742;-56
2021/01/16 04:03:11;;;;;;;15.30;9.57;;;;;;;;;;4415427;32;20332;-57
2021/01/16 04:05:36;;;;;;;11.77;8.67;;;;;;;;;;4418318;32;20363;-56
2021/01/16 04:08:02;;;;;;;14.70;9.20;;;;;;;;;;4415557;32;20263;-56
2021/01/16 04:10:28;;;;;;;11.90;9.40;;;;;;;;;;4417934;32;20293;-57
2021/01/16 04:12:53;;;;;;;10.63;8.70;;;;;;;;;;4400920;32;20350;-56
2021/01/16 04:15:18;;;;;;;12.50;8.93;;;;;;;;;;4415144;32;20372;-56
2021/01/16 04:17:44;;;;;;;10.67;8.40;;;;;;;;;;4409439;32;20289;-57
2021/01/16 04:20:10;;;;;;;10.10;7.03;;;;;;;;;;4414756;32;20268;-56
2021/01/16 04:22:39;;;;;;;13.73;8.13;;;;;;;;;;4414201;32;20333;-57
2021/01/16 04:25:07;;;;;;;10.27;7.83;;;;;;;;;;4409342;32;20237;-57
2021/01/16 04:27:33;;;;;;;11.50;8.37;;;;;;;;;;4415413;32;20260;-57
2021/01/16 04:30:00;;;;;;;18.53;9.90;;;;;;;;;;4415817;32;20750;-60
2021/01/16 04:32:26;;;;;;;18.50;9.33;;;;;;;;;;4417151;32;20217;-57
2021/01/16 04:34:52;;;;;;;15.23;9.83;;;;;;;;;;4414608;32;20296;-57
2021/01/16 04:37:17;;;;;;;19.30;10.53;;;;;;;;;;4416917;32;20790;-56
2021/01/16 04:39:43;;;;;;;16.97;10.87;;;;;;;;;;4414360;32;20352;-56
2021/01/16 04:42:14;;;;;;;36.23;15.30;;;;;;;;;;4416641;32;20315;-56
2021/01/16 04:44:43;;;;;;;32.07;15.57;;;;;;;;;;4411674;32;20252;-57
2021/01/16 04:47:13;;;;;;;30.53;15.10;;;;;;;;;;4413791;32;20309;-58
2021/01/16 04:49:38;;;;;;;22.57;12.57;;;;;;;;;;4410255;32;20247;-58
2021/01/16 04:52:05;;;;;;;23.67;14.00;;;;;;;;;;4415843;32;20327;-58
2021/01/16 04:54:32;;;;;;;29.27;15.83;;;;;;;;;;4414425;32;20288;-57
2021/01/16 04:56:58;;;;;;;22.83;11.60;;;;;;;;;;4413832;32;20682;-57
2021/01/16 04:59:24;;;;;;;16.57;11.33;;;;;;;;;;4414136;32;20307;-58
2021/01/16 05:01:50;;;;;;;18.00;11.70;;;;;;;;;;4417062;32;20634;-58
2021/01/16 05:04:16;;;;;;;19.20;10.93;;;;;;;;;;4408993;32;20295;-57
2021/01/16 05:06:46;;;;;;;14.13;9.40;;;;;;;;;;4408567;32;20712;-57
2021/01/16 05:09:13;;;;;;;14.87;8.83;;;;;;;;;;4408507;32;20447;-57
2021/01/16 05:12:10;;;;;;;20.00;10.63;;;;;;;;;;4410268;32;20592;-57
2021/01/16 05:15:08;;;;;;;16.43;10.60;;;;;;;;;;4414254;32;20678;-56
2021/01/16 05:17:41;;;;;;;18.40;12.40;;;;;;;;;;4413876;32;20236;-57
2021/01/16 05:20:11;;;;;;;12.90;8.63;;;;;;;;;;4413744;32;20209;-56
2021/01/16 05:22:36;;;;;;;19.73;14.90;;;;;;;;;;4416894;32;20240;-57
2021/01/16 05:25:05;;;;;;;20.63;16.10;;;;;;;;;;4414147;32;20308;-57
2021/01/16 05:27:35;;;;;;;19.73;14.33;;;;;;;;;;4416956;32;20286;-57
2021/01/16 05:30:03;;;;;;;30.67;19.77;;;;;;;;;;4411227;32;20224;-56
2021/01/16 05:32:30;;;;;;;27.03;16.57;;;;;;;;;;4413520;32;20248;-57
2021/01/16 05:35:13;;;;;;;25.00;16.93;;;;;;;;;;4414112;32;20240;-58
2021/01/16 05:37:39;;;;;;;25.43;17.73;;;;;;;;;;4416296;32;20301;-57
2021/01/16 05:40:07;;;;;;;16.97;11.83;;;;;;;;;;4408786;32;20296;-57
2021/01/16 05:42:33;;;;;;;13.73;9.97;;;;;;;;;;4416485;32;20267;-56
2021/01/16 05:45:01;;;;;;;15.90;11.60;;;;;;;;;;4406044;32;20300;-55
2021/01/16 05:47:27;;;;;;;15.67;11.37;;;;;;;;;;4416680;32;20217;-55
2021/01/16 05:49:53;;;;;;;19.00;11.43;;;;;;;;;;4413658;32;20302;-56
2021/01/16 05:52:19;;;;;;;14.07;9.60;;;;;;;;;;4416429;32;20296;-55
2021/01/16 05:54:45;;;;;;;13.57;9.53;;;;;;;;;;4414875;32;20692;-55
2021/01/16 05:57:16;;;;;;;17.53;11.37;;;;;;;;;;4416113;32;20241;-56
2021/01/16 05:59:45;;;;;;;16.20;11.10;;;;;;;;;;4410923;32;20308;-56
2021/01/16 06:02:13;;;;;;;20.63;12.97;;;;;;;;;;4415831;32;20300;-56
2021/01/16 06:04:48;;;;;;;20.17;13.43;;;;;;;;;;4410089;32;20231;-55
2021/01/16 06:07:14;;;;;;;30.13;17.87;;;;;;;;;;4415878;32;20228;-55
2021/01/16 06:09:40;;;;;;;35.03;20.63;;;;;;;;;;4414602;32;20299;-56
2021/01/16 06:12:11;;;;;;;33.13;20.37;;;;;;;;;;4415557;32;20216;-54
2021/01/16 06:14:42;;;;;;;37.90;21.20;;;;;;;;;;4410331;32;20693;-55
2021/01/16 06:17:13;;;;;;;24.87;15.70;;;;;;;;;;4411589;32;20756;-54
2021/01/16 06:19:49;;;;;;;17.30;13.47;;;;;;;;;;4408885;32;20528;-55
2021/01/16 06:22:17;;;;;;;18.43;12.83;;;;;;;;;;4414323;32;20213;-54
2021/01/16 06:24:50;;;;;;;31.00;18.20;;;;;;;;;;4416993;32;20616;-55
2021/01/16 06:27:23;;;;;;;23.83;15.37;;;;;;;;;;4418788;32;20261;-55
2021/01/16 06:30:00;;;;;;;23.40;15.50;;;;;;;;;;4415188;32;20209;-55
2021/01/16 06:32:27;;;;;;;21.73;15.33;;;;;;;;;;4418257;32;20248;-55
2021/01/16 06:35:08;;;;;;;27.70;14.87;;;;;;;;;;4416751;32;20235;-55
2021/01/16 06:37:44;;;;;;;17.43;13.27;;;;;;;;;;4417472;32;20317;-55
2021/01/16 06:40:11;;;;;;;18.40;13.73;;;;;;;;;;4407826;32;20291;-55
2021/01/16 06:42:38;;;;;;;20.20;10.70;;;;;;;;;;4417221;32;20245;-55
2021/01/16 06:45:09;;;;;;;18.33;13.33;;;;;;;;;;4416452;32;20244;-55
2021/01/16 06:47:36;;;;;;;18.03;13.00;;;;;;;;;;4417941;32;20225;-54
2021/01/16 06:50:06;;;;;;;27.70;20.90;;;;;;;;;;4416601;32;20303;-55
2021/01/16 06:52:37;;;;;;;31.97;21.80;;;;;;;;;;4417913;32;20303;-55
2021/01/16 06:55:05;;;;;;;29.43;17.73;;;;;;;;;;4416727;32;20274;-55
2021/01/16 06:57:32;;;;;;;19.93;13.93;;;;;;;;;;4417764;32;20205;-55
2021/01/16 07:00:06;;;;;;;28.13;16.37;;;;;;;;;;4415065;32;20626;-54
2021/01/16 07:02:36;;;;;;;24.47;15.07;;;;;;;;;;4417703;32;20361;-55
2021/01/16 07:05:05;;;;;;;32.90;21.47;;;;;;;;;;4416310;32;20283;-55
2021/01/16 07:07:34;;;;;;;19.43;12.93;;;;;;;;;;4417634;32;20304;-55
2021/01/16 07:10:05;;;;;;;25.83;18.50;;;;;;;;;;4416151;32;20270;-55
2021/01/16 07:12:31;;;;;;;30.37;19.07;;;;;;;;;;4409229;32;20673;-56
2021/01/16 07:14:56;;;;;;;30.17;17.90;;;;;;;;;;4411178;32;20356;-56
2021/01/16 07:17:24;;;;;;;34.27;19.80;;;;;;;;;;4417516;32;20900;-56
2021/01/16 07:19:50;;;;;;;29.83;16.37;;;;;;;;;;4417968;32;20676;-55
2021/01/16 07:22:16;;;;;;;30.97;18.83;;;;;;;;;;4418086;32;20225;-56
2021/01/16 07:24:42;;;;;;;44.40;23.13;;;;;;;;;;4406471;32;20417;-56
2021/01/16 07:27:11;;;;;;;32.67;19.97;;;;;;;;;;4411419;32;20748;-56
2021/01/16 07:29:42;;;;;;;77.83;37.53;;;;;;;;;;4408994;32;20559;-56
2021/01/16 07:32:15;;;;;;;101.00;52.00;;;;;;;;;;4413675;32;20383;-56
2021/01/16 07:34:45;;;;;;;96.70;52.43;;;;;;;;;;4411728;32;20239;-56
2021/01/16 07:37:12;;;;;;;83.90;42.80;;;;;;;;;;4416574;32;20378;-56
2021/01/16 07:39:39;;;;;;;46.43;27.07;;;;;;;;;;4415811;32;20221;-55
2021/01/16 07:42:11;;;;;;;47.20;26.63;;;;;;;;;;4417185;32;20305;-55
2021/01/16 07:44:46;;;;;;;31.73;21.73;;;;;;;;;;4408222;32;20271;-54
2021/01/16 07:47:18;;;;;;;17.67;12.97;;;;;;;;;;4410217;32;20299;-55
2021/01/16 07:49:52;;;;;;;15.67;11.60;;;;;;;;;;4408942;32;20242;-54
2021/01/16 07:52:23;;;;;;;17.13;12.20;;;;;;;;;;4416261;32;20244;-55
2021/01/16 07:55:02;;;;;;;14.23;10.77;;;;;;;;;;4415321;32;20354;-55
2021/01/16 07:57:30;;;;;;;15.30;9.97;;;;;;;;;;4411549;32;20350;-54
2021/01/16 08:00:00;;;;;;;18.67;12.90;;;;;;;;;;4417521;32;20248;-55
2021/01/16 08:02:27;;;;;;;22.37;14.50;;;;;;;;;;4417631;32;20617;-55
2021/01/16 08:05:08;;;;;;;24.30;14.27;;;;;;;;;;4409142;32;20613;-53
2021/01/16 08:08:02;;;;;;;18.93;12.47;;;;;;;;;;4410837;32;20289;-54
2021/01/16 08:10:27;;;;;;;18.43;12.20;;;;;;;;;;4411820;32;20214;-54
2021/01/16 08:12:57;;;;;;;30.20;15.63;;;;;;;;;;4415855;32;20324;-53
2021/01/16 08:15:29;;;;;;;20.37;13.40;;;;;;;;;;4408447;32;20279;-54
2021/01/16 08:17:55;;;;;;;19.80;12.27;;;;;;;;;;4409934;32;20237;-54
2021/01/16 08:20:27;;;;;;;19.77;11.23;;;;;;;;;;4413785;32;20276;-53
2021/01/16 08:22:55;;;;;;;26.90;14.20;;;;;;;;;;4413134;32;20216;-54
2021/01/16 08:25:26;;;;;;;25.27;16.43;;;;;;;;;;4413347;32;20285;-54
2021/01/16 08:27:54;;;;;;;19.47;13.23;;;;;;;;;;4414598;32;20338;-54
2021/01/16 08:30:22;;;;;;;21.80;13.13;;;;;;;;;;4412936;32;20202;-53
2021/01/16 08:33:04;;;;;;;13.80;10.43;;;;;;;;;;4417245;32;20645;-54
2021/01/16 08:35:47;;;;;;;16.10;9.70;;;;;;;;;;4413917;32;20237;-54
2021/01/16 08:38:18;;;;;;;13.97;9.57;;;;;;;;;;4406535;32;20661;-54
2021/01/16 08:41:03;;;;;;;17.97;13.00;;;;;;;;;;4409885;32;20705;-56
2021/01/16 08:43:35;;;;;;;16.27;11.10;;;;;;;;;;4413365;32;20213;-55
2021/01/16 08:46:17;;;;;;;11.93;8.70;;;;;;;;;;4417132;32;20283;-53
2021/01/16 08:49:05;;;;;;;12.33;8.97;;;;;;;;;;4417388;32;20560;-54
2021/01/16 08:51:44;;;;;;;18.07;11.47;;;;;;;;;;4402721;32;20248;-54
2021/01/16 08:54:11;;;;;;;14.27;9.47;;;;;;;;;;4410818;32;20258;-55
2021/01/16 08:56:38;;;;;;;28.73;15.00;;;;;;;;;;4411151;32;20249;-54
2021/01/16 08:59:26;;;;;;;24.70;12.77;;;;;;;;;;4415366;32;20276;-54
2021/01/16 09:01:54;;;;;;;13.43;8.17;;;;;;;;;;4407185;32;20307;-55
2021/01/16 09:04:29;;;;;;;20.97;8.53;;;;;;;;;;4411459;32;20263;-55
2021/01/16 09:07:17;;;;;;;19.03;11.37;;;;;;;;;;4403406;32;20345;-54
2021/01/16 09:10:06;;;;;;;21.33;11.17;;;;;;;;;;4410937;32;20304;-54
2021/01/16 09:12:36;;;;;;;36.20;19.50;;;;;;;;;;4416974;32;20322;-54
2021/01/16 09:15:24;;;;;;;26.87;14.20;;;;;;;;;;4408980;32;20581;-54
2021/01/16 09:18:14;;;;;;;42.53;20.13;;;;;;;;;;4406820;32;20246;-54
2021/01/16 09:20:40;;;;;;;22.93;11.90;;;;;;;;;;4410699;32;20258;-55
2021/01/16 09:23:27;;;;;;;37.97;16.37;;;;;;;;;;4417189;32;20221;-55
2021/01/16 09:26:10;;;;;;;22.13;13.43;;;;;;;;;;4409658;32;20693;-54
2021/01/16 09:28:42;;;;;;;24.70;16.30;;;;;;;;;;4412462;32;20229;-54
2021/01/16 09:31:30;;;;;;;24.90;14.63;;;;;;;;;;4410828;32;20590;-55
2021/01/16 09:34:00;;;;;;;21.70;12.40;;;;;;;;;;4416031;32;20328;-54
2021/01/16 09:36:46;;;;;;;18.53;11.57;;;;;;;;;;4416148;32;20221;-54
2021/01/16 09:39:29;;;;;;;15.10;11.17;;;;;;;;;;4416796;32;20267;-55
2021/01/16 09:42:02;;;;;;;49.80;30.80;;;;;;;;;;4416674;32;20604;-54
2021/01/16 09:44:43;;;;;;;24.23;14.83;;;;;;;;;;4417112;32;20568;-55
2021/01/16 09:47:27;;;;;;;24.23;13.57;;;;;;;;;;4411556;32;20241;-55
2021/01/16 09:50:02;;;;;;;12.20;6.73;;;;;;;;;;4417551;32;20866;-55
2021/01/16 09:52:28;;;;;;;9.33;6.63;;;;;;;;;;4414843;32;20713;-56
2021/01/16 09:54:55;;;;;;;11.73;8.93;;;;;;;;;;4419344;32;20283;-55
2021/01/16 09:57:37;;;;;;;14.50;8.07;;;;;;;;;;4413003;32;20225;-55
2021/01/16 10:00:33;;;;;;;25.63;15.60;;;;;;;;;;4405883;32;20202;-56
2021/01/16 10:03:08;;;;;;;18.23;12.30;;;;;;;;;;4410585;32;20229;-54
2021/01/16 10:05:35;;;;;;;13.93;9.43;;;;;;;;;;4417327;32;20622;-55
2021/01/16 10:08:02;;;;;;;22.53;13.43;;;;;;;;;;4419297;32;20318;-54
2021/01/16 10:10:41;;;;;;;22.77;12.20;;;;;;;;;;4418852;32;20228;-55
2021/01/16 10:13:10;;;;;;;20.80;12.03;;;;;;;;;;4414489;32;20386;-54
2021/01/16 10:15:45;;;;;;;17.83;8.27;;;;;;;;;;4417860;32;20683;-56
2021/01/16 10:18:17;;;;;;;18.80;9.37;;;;;;;;;;4417941;32;20232;-54
2021/01/16 10:20:43;;;;;;;16.23;10.83;;;;;;;;;;4412026;32;20402;-56
2021/01/16 10:23:08;;;;;;;14.00;9.67;;;;;;;;;;4417105;32;20292;-56
2021/01/16 10:25:42;;;;;;;11.80;8.27;;;;;;;;;;4414706;32;20290;-56
2021/01/16 10:28:12;;;;;;;15.53;9.57;;;;;;;;;;4411916;32;20361;-56
2021/01/16 10:30:56;;;;;;;22.73;13.90;;;;;;;;;;4407653;32;21159;-56
2021/01/16 10:33:22;;;;;;;24.80;12.33;;;;;;;;;;4415299;32;20616;-57
2021/01/16 10:35:51;;;;;;;29.17;15.03;;;;;;;;;;4412479;32;20272;-58
2021/01/16 10:38:39;;;;;;;12.77;7.83;;;;;;;;;;4418577;32;20228;-57
2021/01/16 10:41:10;;;;;;;20.70;10.70;;;;;;;;;;4416010;32;20650;-57
2021/01/16 10:43:36;;;;;;;20.93;12.43;;;;;;;;;;4417961;32;20247;-60
2021/01/16 10:46:32;;;;;;;20.40;9.87;;;;;;;;;;4417547;32;20708;-57
2021/01/16 10:49:18;;;;;;;14.47;8.53;;;;;;;;;;4409868;32;20265;-58
2021/01/16 10:51:54;;;;;;;12.10;7.57;;;;;;;;;;4416000;32;20308;-59
2021/01/16 10:54:22;;;;;;;16.50;9.83;;;;;;;;;;4417722;32;20201;-59
2021/01/16 10:57:03;;;;;;;14.07;9.67;;;;;;;;;;4416308;32;20355;-59
2021/01/16 10:59:33;;;;;;;27.33;11.43;;;;;;;;;;4418872;32;20208;-59
2021/01/16 11:02:08;;;;;;;25.40;12.30;;;;;;;;;;4416684;32;20297;-56
2021/01/16 11:04:39;;;;;;;26.03;9.77;;;;;;;;;;4406138;32;20245;-58
2021/01/16 11:07:09;;;;;;;14.30;8.37;;;;;;;;;;4413553;32;20298;-56
2021/01/16 11:09:37;;;;;;;13.20;9.27;;;;;;;;;;4418230;32;20260;-57
2021/01/16 11:12:07;;;;;;;24.67;12.23;;;;;;;;;;4407573;32;20303;-59
2021/01/16 11:14:39;;;;;;;21.80;12.83;;;;;;;;;;4399648;32;20276;-57
2021/01/16 11:17:07;;;;;;;22.37;14.40;;;;;;;;;;4397920;32;20237;-53
2021/01/16 11:19:39;;;;;;;16.93;9.50;;;;;;;;;;4410831;32;20237;-54
2021/01/16 11:22:09;;;;;;;13.33;8.80;;;;;;;;;;4415130;32;20233;-52
2021/01/16 11:24:53;;;;;;;23.20;10.30;;;;;;;;;;4412758;32;20714;-53
2021/01/16 11:27:21;;;;;;;24.83;12.77;;;;;;;;;;4409730;32;20275;-53
2021/01/16 11:29:47;;;;;;;59.27;22.70;;;;;;;;;;4407560;32;20220;-52
2021/01/16 11:32:26;;;;;;;47.63;22.33;;;;;;;;;;4411285;32;20836;-52
2021/01/16 11:35:09;;;;;;;23.57;13.87;;;;;;;;;;4413933;32;20240;-53
2021/01/16 11:37:57;;;;;;;20.10;10.50;;;;;;;;;;4410136;32;20245;-54
2021/01/16 11:40:24;;;;;;;16.23;10.10;;;;;;;;;;4409049;32;20300;-53
2021/01/16 11:42:52;;;;;;;15.27;9.47;;;;;;;;;;4413658;32;20383;-53
2021/01/16 11:45:18;;;;;;;17.30;9.23;;;;;;;;;;4414334;32;20312;-54
2021/01/16 11:47:51;;;;;;;13.13;8.83;;;;;;;;;;4416739;32;20273;-54
2021/01/16 11:50:18;;;;;;;12.20;8.13;;;;;;;;;;4415939;32;20227;-54
2021/01/16 11:52:43;;;;;;;15.43;9.70;;;;;;;;;;4417323;32;20746;-54
2021/01/16 11:55:13;;;;;;;11.47;7.40;;;;;;;;;;4408734;32;20296;-54
2021/01/16 11:57:40;;;;;;;11.70;6.53;;;;;;;;;;4413240;32;20229;-53
2021/01/16 12:00:07;;;;;;;12.77;8.37;;;;;;;;;;4411189;32;20315;-54
2021/01/16 12:02:33;;;;;;;7.20;5.20;;;;;;;;;;4416422;32;20403;-55
2021/01/16 12:04:59;;;;;;;7.50;5.20;;;;;;;;;;4411779;32;20202;-55
2021/01/16 12:07:28;;;;;;;12.87;8.03;;;;;;;;;;4413204;32;20301;-53
2021/01/16 12:09:57;;;;;;;5.50;4.13;;;;;;;;;;4413785;32;20220;-55
2021/01/16 12:12:31;;;;;;;9.30;6.57;;;;;;;;;;4407889;32;20340;-55
2021/01/16 12:14:56;;;;;;;15.70;7.60;;;;;;;;;;4404313;32;20229;-53
2021/01/16 12:17:22;;;;;;;12.30;7.17;;;;;;;;;;4412417;32;20311;-53
2021/01/16 12:19:50;;;;;;;12.57;8.13;;;;;;;;;;4410800;32;20245;-55
2021/01/16 12:22:21;;;;;;;12.63;8.87;;;;;;;;;;4406801;32;20349;-54
2021/01/16 12:24:47;;;;;;;12.40;7.67;;;;;;;;;;4414264;32;20260;-55
2021/01/16 12:27:13;;;;;;;13.33;8.27;;;;;;;;;;4413323;32;20336;-55
2021/01/16 12:29:44;;;;;;;17.13;7.30;;;;;;;;;;4404186;32;20342;-57
2021/01/16 12:32:14;;;;;;;10.63;7.33;;;;;;;;;;4409294;32;20233;-54
2021/01/16 12:34:45;;;;;;;21.60;12.67;;;;;;;;;;4413598;32;20225;-54
2021/01/16 12:37:11;;;;;;;16.53;11.47;;;;;;;;;;4411062;32;20343;-54
2021/01/16 12:39:36;;;;;;;14.17;10.33;;;;;;;;;;4409902;32;20395;-53
2021/01/16 12:42:02;;;;;;;17.17;10.37;;;;;;;;;;4413606;32;20253;-53
2021/01/16 12:44:28;;;;;;;15.00;9.13;;;;;;;;;;4415759;32;20380;-56
2021/01/16 12:46:54;;;;;;;11.60;7.90;;;;;;;;;;4408231;32;20256;-54
2021/01/16 12:49:19;;;;;;;10.50;6.90;;;;;;;;;;4409212;32;20359;-56
2021/01/16 12:51:49;;;;;;;6.23;4.23;;;;;;;;;;4402904;32;20238;-55
2021/01/16 12:54:16;;;;;;;8.40;6.03;;;;;;;;;;4404038;32;20305;-53
2021/01/16 12:56:43;;;;;;;24.20;8.67;;;;;;;;;;4407126;32;20859;-53
2021/01/16 12:59:14;;;;;;;8.53;4.80;;;;;;;;;;4408358;32;20251;-54
2021/01/16 13:02:00;;;;;;;8.30;6.70;;;;;;;;;;4401866;32;20225;-53
2021/01/16 13:04:26;;;;;;;8.07;5.60;;;;;;;;;;4409525;32;20792;-53
2021/01/16 13:06:51;;;;;;;9.00;6.13;;;;;;;;;;4417592;32;20240;-54
2021/01/16 13:09:17;;;;;;;10.23;7.13;;;;;;;;;;4409884;32;20314;-53
2021/01/16 13:11:48;;;;;;;27.53;11.23;;;;;;;;;;4408017;32;20678;-53
2021/01/16 13:14:14;;;;;;;12.70;7.47;;;;;;;;;;4413128;32;20915;-54
2021/01/16 13:16:47;;;;;;;10.47;7.20;;;;;;;;;;4413121;32;20255;-54
2021/01/16 13:19:18;;;;;;;11.73;6.90;;;;;;;;;;4407278;32;20217;-53
2021/01/16 13:21:52;;;;;;;9.13;6.27;;;;;;;;;;4398238;32;20296;-55
2021/01/16 13:24:22;;;;;;;15.37;9.33;;;;;;;;;;4400908;32;20243;-54
2021/01/16 13:26:48;;;;;;;8.27;5.97;;;;;;;;;;4403404;32;20402;-54
2021/01/16 13:29:17;;;;;;;11.43;7.63;;;;;;;;;;4405027;32;20284;-55
2021/01/16 13:31:44;;;;;;;11.23;6.17;;;;;;;;;;4404815;32;20276;-54
2021/01/16 13:34:16;;;;;;;10.10;5.77;;;;;;;;;;4410319;32;20259;-53
2021/01/16 13:36:43;;;;;;;8.37;6.47;;;;;;;;;;4417975;32;20312;-52
2021/01/16 13:39:15;;;;;;;17.40;6.60;;;;;;;;;;4412196;32;20245;-53
2021/01/16 13:41:45;;;;;;;7.93;6.17;;;;;;;;;;4404895;32;20330;-54
2021/01/16 13:44:22;;;;;;;6.77;5.33;;;;;;;;;;4403432;32;20359;-53
2021/01/16 13:46:48;;;;;;;11.30;6.03;;;;;;;;;;4402971;32;20517;-52
2021/01/16 13:49:27;;;;;;;9.50;6.57;;;;;;;;;;4411307;32;20213;-53
2021/01/16 13:52:04;;;;;;;24.13;12.13;;;;;;;;;;4419760;32;20267;-54
2021/01/16 13:54:31;;;;;;;18.23;13.13;;;;;;;;;;4419336;32;20272;-52
2021/01/16 13:56:57;;;;;;;21.97;13.40;;;;;;;;;;4419611;32;20221;-52
2021/01/16 13:59:23;;;;;;;17.57;10.63;;;;;;;;;;4419912;32;20307;-53
2021/01/16 14:01:51;;;;;;;11.93;7.70;;;;;;;;;;4419882;32;20229;-54
2021/01/16 14:04:17;;;;;;;22.57;10.37;;;;;;;;;;4419665;32;20209;-53
2021/01/16 14:06:45;;;;;;;19.97;9.93;;;;;;;;;;4419719;32;20285;-53
2021/01/16 14:09:11;;;;;;;20.23;11.67;;;;;;;;;;4419912;32;20313;-54
2021/01/16 14:11:43;;;;;;;21.87;11.93;;;;;;;;;;4419586;32;20229;-52
2021/01/16 14:14:28;;;;;;;11.17;8.23;;;;;;;;;;4419766;32;20577;-53
2021/01/16 14:17:13;;;;;;;12.07;7.53;;;;;;;;;;4417832;32;20263;-53
2021/01/16 14:19:40;;;;;;;13.27;8.67;;;;;;;;;;4419436;32;20545;-53
2021/01/16 14:22:07;;;;;;;16.17;10.57;;;;;;;;;;4418535;32;20259;-52
2021/01/16 14:24:33;;;;;;;17.47;11.73;;;;;;;;;;4419428;32;20312;-53
2021/01/16 14:27:00;;;;;;;16.87;11.20;;;;;;;;;;4419388;32;20576;-53
2021/01/16 14:29:26;;;;;;;13.87;9.47;;;;;;;;;;4419639;32;20217;-53
2021/01/16 14:31:52;;;;;;;15.33;10.27;;;;;;;;;;4419586;32;20331;-53
2021/01/16 14:34:17;;;;;;;14.37;9.50;;;;;;;;;;4419112;32;20475;-53
2021/01/16 14:36:53;;;;;;;15.33;9.53;;;;;;;;;;4419002;32;20731;-52
2021/01/16 14:39:18;;;;;;;18.37;10.93;;;;;;;;;;4419388;32;20352;-52